Flight Track Log - Related Links

Times and Time Zones

All times are in EDT time to prevent confusion due to time zone crossing. See the N883PF flight status page for this flight to view local times or setup timezone preferences in your user account.

Time Position Orientation Groundspeed Altitude Reporting Facility
EDT Latitude Longitude Course Direction KTS MPH feet Rate Location/Type
06:50PM 32.3447 -99.5922 81° East 238 274 6,500  Level Fort Worth Center
06:55PM 32.4106 -99.1139 79° East 315 362 18,800 2,417 Climbing Fort Worth Center
06:56PM 32.4286 -99.0058 78° East 320 368 21,000 2,100 Climbing Fort Worth Center
06:57PM 32.4489 -98.8931 77° East 334 384 23,000 2,000 Climbing Fort Worth Center
06:58PM 32.4711 -98.7750 81° East 354 407 25,000 1,800 Climbing Fort Worth Center
06:59PM 32.4844 -98.6792 77° East 361 415 26,600 2,000 Climbing Fort Worth Center
07:00PM 32.5131 -98.5319 78° East 373 429 29,000 2,000 Climbing Fort Worth Center
07:01PM 32.5350 -98.4089 79° East 378 435 30,600 1,600 Climbing Fort Worth Center
07:02PM 32.5569 -98.2786 79° East 384 442 32,200 1,550 Climbing Fort Worth Center
07:03PM 32.5786 -98.1481 79° East 394 453 33,700 1,500 Climbing Fort Worth Center
07:04PM 32.6003 -98.0175 78° East 399 459 35,200 1,450 Climbing Fort Worth Center
07:05PM 32.6236 -97.8844 79° East 399 459 36,600 1,050 Climbing Fort Worth Center
07:06PM 32.6450 -97.7514 78° East 411 473 37,300 600 Climbing Fort Worth Center
07:07PM 32.6703 -97.6108 79° East 418 481 37,800 600 Climbing Fort Worth Center
07:08PM 32.6936 -97.4653 80° East 439 505 38,500 750 Climbing Fort Worth Center
07:09PM 32.7144 -97.3172 79° East 449 517 39,300 800 Climbing Fort Worth Center
07:10PM 32.7392 -97.1689 77° East 449 517 40,100 850 Climbing Fort Worth Center
07:11PM 32.7661 -97.0256 79° East 442 509 41,000 450 Climbing Fort Worth Center
07:12PM 32.7864 -96.8969 79° East 436 502 41,000  Level Fort Worth Center
07:13PM 32.8147 -96.7286 79° East 455 524 41,000  Level Fort Worth Center
07:14PM 32.8369 -96.5950 80° East 460 529 41,000  Level Fort Worth Center
07:15PM 32.8589 -96.4414 78° East 467 537 41,000  Level Fort Worth Center
07:16PM 32.8847 -96.2928 80° East 467 537 41,000  Level Fort Worth Center
07:17PM 32.9064 -96.1392 79° East 467 537 41,000  Level Fort Worth Center
07:18PM 32.9317 -95.9853 80° East 467 537 41,000  Level Fort Worth Center
07:19PM 32.9531 -95.8339 79° East 462 532 41,000  Level Fort Worth Center
07:20PM 32.9781 -95.6775 80° East 468 539 41,000  Level Fort Worth Center
07:21PM 33.0028 -95.5111 81° East 468 539 41,000  Level Fort Worth Center
07:22PM 33.0214 -95.3619 79° East 463 533 41,000  Level Fort Worth Center
07:23PM 33.0458 -95.2103 81° East 463 533 41,000  Level Fort Worth Center
07:24PM 33.0661 -95.0561 81° East 468 539 41,000  Level Fort Worth Center
07:25PM 33.0861 -94.9019 79° East 468 539 41,000  Level Fort Worth Center
07:26PM 33.1100 -94.7500 80° East 468 539 41,000  Level Fort Worth Center
07:27PM 33.1317 -94.5956 81° East 468 539 41,000  Level Fort Worth Center
07:28PM 33.1511 -94.4436 80° East 468 539 41,000  Level Fort Worth Center
07:29PM 33.1744 -94.2864 81° East 468 539 41,000  Level Fort Worth Center
07:30PM 33.1936 -94.1342 83° East 468 539 41,000  Level Fort Worth Center
07:31PM 33.2103 -93.9797 79° East 468 539 41,000  Level Fort Worth Center
07:32PM 33.2350 -93.8197 80° East 475 547 41,000  Level Fort Worth Center
07:33PM 33.2558 -93.6775 80° East 485 558 41,000  Level Fort Worth Center
07:34PM 33.2783 -93.5225 81° East 480 552 41,000  Level Fort Worth Center
07:35PM 33.2986 -93.3700 81° East 468 539 41,000  Level Fort Worth Center
07:36PM 33.3186 -93.2175 81° East 468 539 41,000  Level Fort Worth Center
07:37PM 33.3386 -93.0672 81° East 468 539 41,000  Level Fort Worth Center
07:38PM 33.3583 -92.9147 81° East 468 539 41,000  Level Fort Worth Center
07:39PM 33.3778 -92.7644 81° East 468 539 41,000 50 Level Fort Worth Center
07:40PM 33.3972 -92.6142 82° East 463 533 41,100 589 Climbing Fort Worth Center
07:42PM 33.4286 -92.3461 81° East 459 528 42,600 847 Climbing Memphis Center
07:43PM 33.4475 -92.2044 82° East 446 513 43,400 650 Climbing Memphis Center
07:44PM 33.4642 -92.0631 83° East 433 498 43,900 500 Climbing Memphis Center
07:45PM 33.4783 -91.9264 82° East 423 487 44,400 500 Climbing Memphis Center
07:46PM 33.4944 -91.7919 83° East 418 481 44,900 300 Climbing Memphis Center
07:47PM 33.5086 -91.6553 82° East 413 475 45,000 50 Climbing Memphis Center
07:48PM 33.5244 -91.5158 82° East 413 475 45,000  Level Memphis Center
07:49PM 33.5403 -91.3742 82° East 413 475 45,000  Level Memphis Center
07:50PM 33.5561 -91.2372 83° East 413 475 45,000  Level Memphis Center
07:51PM 33.5717 -91.0928 83° East 423 487 45,000  Level Memphis Center
07:52PM 33.5869 -90.9506 83° East 429 494 45,000  Level Memphis Center
07:53PM 33.6022 -90.8061 82° East 424 488 45,000  Level Memphis Center
07:54PM 33.6192 -90.6667 83° East 424 488 45,000  Level Memphis Center
07:55PM 33.6342 -90.5219 82° East 424 488 45,000  Level Memphis Center
07:56PM 33.6489 -90.3897 83° East 430 495 45,000  Level Memphis Center
07:57PM 33.6633 -90.2475 83° East 430 495 45,000  Level Memphis Center
07:58PM 33.6778 -90.1050 83° East 430 495 45,000  Level Memphis Center
07:59PM 33.6919 -89.9628 83° East 425 489 45,000  Level Memphis Center
08:00PM 33.7061 -89.8203 82° East 425 489 45,000  Level Memphis Center
08:01PM 33.7222 -89.6778 84° East 425 489 45,000  Level Memphis Center
08:02PM 33.7358 -89.5328 84° East 425 489 45,000  Level Memphis Center
08:03PM 33.7494 -89.3878 84° East 425 489 45,000  Level Memphis Center
08:04PM 33.7628 -89.2453 83° East 425 489 45,000  Level Memphis Center
08:05PM 33.7781 -89.0975 83° East 425 489 45,000  Level Memphis Center
08:06PM 33.7933 -88.9550 86° East 425 489 45,000  Level Memphis Center
08:07PM 33.8019 -88.8122 84° East 425 489 45,000  Level Memphis Center
08:08PM 33.8147 -88.6647 84° East 425 489 45,000  Level Memphis Center
08:09PM 33.8292 -88.5067 84° East 425 489 45,000  Level Memphis Center
08:10PM 33.8414 -88.3639 83° East 425 489 45,000  Level Memphis Center
08:11PM 33.8558 -88.2186 84° East 425 489 45,000  Level Memphis Center
08:13PM 33.8811 -87.9222 85° East 428 493 45,000  Level Atlanta Center
08:14PM 33.8919 -87.7775 84° East 428 493 45,000  Level Atlanta Center
08:15PM 33.9047 -87.6278 85° East 434 499 45,000  Level Atlanta Center
08:16PM 33.9153 -87.4806 84° East 439 505 45,000  Level Atlanta Center
08:17PM 33.9278 -87.3308 84° East 439 505 45,000  Level Atlanta Center
08:18PM 33.9400 -87.1836 84° East 439 505 45,000  Level Atlanta Center
08:19PM 33.9519 -87.0339 84° East 439 505 45,000  Level Atlanta Center
08:20PM 33.9639 -86.8867 85° East 439 505 45,000  Level Atlanta Center
08:21PM 33.9758 -86.7267 85° East 439 505 45,000  Level Atlanta Center
08:22PM 33.9872 -86.5792 85° East 439 505 45,000  Level Atlanta Center
08:23PM 33.9986 -86.4267 85° East 439 505 45,000  Level Atlanta Center
08:24PM 34.0097 -86.2817 86° East 439 505 45,000  Level Atlanta Center
08:25PM 34.0186 -86.1317 84° East 444 511 45,000  Level Atlanta Center
08:26PM 34.0314 -85.9839 85° East 444 511 45,000  Level Atlanta Center
08:27PM 34.0419 -85.8361 85° East 444 511 45,000  Level Atlanta Center
08:28PM 34.0522 -85.7061 85° East 434 499 45,000  Level Atlanta Center
08:29PM 34.0625 -85.5583 84° East 439 505 45,000  Level Atlanta Center
08:30PM 34.0747 -85.4081 87° East 445 512 45,000  Level Atlanta Center
08:31PM 34.0828 -85.2453 86° East 445 512 45,000  Level Atlanta Center
08:32PM 34.0903 -85.0972 86° East 440 506 45,000  Level Atlanta Center
08:33PM 34.0997 -84.9494 88° East 447 514 45,000  Level Atlanta Center
08:34PM 34.1050 -84.7964 86° East 442 509 45,000  Level Atlanta Center
08:35PM 34.1142 -84.6486 83° East 442 509 45,000  Level Atlanta Center
08:36PM 34.1294 -84.4981 86° East 442 509 45,000  Level Atlanta Center
08:37PM 34.1361 -84.3650 87° East 442 509 45,000  Level Atlanta Center
08:38PM 34.1428 -84.2194 87° East 442 509 45,000 -150 Level Atlanta Center
08:39PM 34.1492 -84.0714 86° East 437 503 44,700 -600 Descending Atlanta Center
08:40PM 34.1575 -83.9258 87° East 443 510 43,800 -950 Descending Atlanta Center
08:41PM 34.1633 -83.7803 86° East 438 504 42,800 -950 Descending Atlanta Center
08:42PM 34.1714 -83.6269 87° East 426 490 41,900 -900 Descending Atlanta Center
08:43PM 34.1769 -83.4889 87° East 421 484 41,000 -950 Descending Atlanta Center
08:44PM 34.1825 -83.3508 86° East 415 478 40,000 -1,200 Descending Atlanta Center
08:45PM 34.1900 -83.2100 86° East 415 478 38,600 -1,450 Descending Atlanta Center
08:46PM 34.1975 -83.0719 87° East 415 478 37,100 -1,500 Descending Atlanta Center
08:47PM 34.2044 -82.9311 87° East 415 478 35,600 -1,300 Descending Atlanta Center
08:48PM 34.2094 -82.7978 87° East 409 471 34,500 -1,500 Descending Atlanta Center
08:49PM 34.2144 -82.6597 87° East 404 465 32,600 -2,000 Descending Atlanta Center
08:50PM 34.2211 -82.5264 88° East 404 465 30,500 -1,300 Descending Atlanta Center
08:51PM 34.2256 -82.3881 88° East 404 465 30,000 -1,103 Descending Atlanta Center
08:53PM 34.2325 -82.0939 88° East 435 501 27,100 -1,297 Descending Jacksonville Center
08:54PM 34.2356 -81.9581 89° East 424 488 26,000 -1,200 Descending Jacksonville Center
08:55PM 34.2367 -81.8275 88° East 401 461 24,700 -1,450 Descending Jacksonville Center
08:56PM 34.2397 -81.7019 89° East 380 437 23,100 -2,050 Descending Jacksonville Center
08:57PM 34.2406 -81.5839 89° East 361 415 20,600 -2,500 Descending Jacksonville Center
08:58PM 34.2417 -81.4758 89° East 338 389 18,100 -2,500 Descending Jacksonville Center
08:59PM 34.2425 -81.3803 89° East 320 368 15,600 -2,500 Descending Jacksonville Center
09:00PM 34.2436 -81.2875 89° East 299 344 13,100 -2,400 Descending Jacksonville Center
09:01PM 34.2444 -81.1969 87° East 280 322 10,800 -2,150 Descending Jacksonville Center
09:02PM 34.2475 -81.1139 93° East 256 295 8,800 -1,850 Descending Jacksonville Center
09:03PM 34.2442 -81.0311 87° East 246 283 7,100 -1,400 Descending Jacksonville Center
09:04PM 34.2472 -80.9533 91° East 241 277 6,000 -600 Descending Jacksonville Center
09:05PM 34.2458 -80.8628 91° East 235 270 5,900 1,000 Descending Jacksonville Center
09:06PM 34.2444 -80.7800 78° East 235 270 8,000 2,100 Climbing Jacksonville Center
09:14PM 34.2833 -80.5500 271° West  Level FlightAware Approximate
09:15PM 34.2857 -80.6907 91° East  Level Estimated
09:16PM 34.2833 -80.5500 271° West  Level FlightAware Approximate
09:17PM 34.2857 -80.6907 91° East  Level Estimated
09:18PM 34.2833 -80.5500 271° West  Level FlightAware Approximate
09:19PM 34.2857 -80.6907 91° East  Level Estimated
09:20PM 34.2833 -80.5500 271° West  Level FlightAware Approximate
09:21PM 34.2857 -80.6907 91° East  Level Estimated
09:22PM 34.2833 -80.5500 271° West  Level FlightAware Approximate
09:23PM 34.2857 -80.6907 91° East  Level Estimated
09:24PM 34.2833 -80.5500 91° East  Level FlightAware Approximate

Login

Don't have an account? Register now (free) for customized features, flight alerts, and more!